OESH

Details ICAO OESH (SHW)
Name SHARURAH
Region Saudi Arabia
Timezone Asia/Riyadh (UTC+3.0)
Plans Departing 5
Arriving 13
Stats Elevation 2,363 ft / 720 m (AMSL)
Location 17.466875° 47.121429°
Runways 1
Magnetic Variation 2.000° E
Sunrise 2017-12-18 03:16:52 UTC / 2017-12-18 06:16:52 Local
Sunset 2017-12-18 14:21:58 UTC / 2017-12-18 17:21:58 Local
Advertisement - Login to hide

Runways

ID Width Length Bearing (true) Bearing (mag) Surface Threshold Offset Overrun Length
08 147 ft / 45 m 12,017 ft / 3,663 m 84.59° 82.59° Asphalt 0 ft / 0 m 400 ft / 122 m
26 147 ft / 45 m 12,017 ft / 3,663 m 264.60° 262.60° Asphalt 0 ft / 0 m 400 ft / 122 m

Approach Navaids

Runway Type Ident Frequency Range Bearing (true) Bearing (mag) Slope Elevation
08 Localiser ISHA 109.70 MHz 18 nm / 33 km 84.63° 82.63° - 2,363 ft / 720 m (AMSL)
08 Glidescope ISHA 109.70 MHz 10 nm / 19 km 84.60° 82.60° 3.00° 2,363 ft / 720 m (AMSL)
08 DME ISHA 109.70 MHz 18 nm / 33 km - - - 2,363 ft / 720 m (AMSL)

Map

Weather


0- 5 10 15 20 25 30 35+ Temperature / ° C

Clouds and Precipitation
Forecast for 2017-12-18 12:00 UTC. Updated an hour ago

Ground ~20,000 ft ~40,000 ft Winds

METAR

OESH 181200Z 03006KT CAVOK 21/03 Q1022 NOSIG

TAF

Not found

Frequencies

Unicom 122.80 MHz CTAF
Warning: Do not use this data for real-world aviation or navigation. No guarantee of current accuracy is given.